Buoy 43533

sailwx.info

Track history (hours):
 
Tides and Currents Weather Stations Pressure Air Temp Water Temp Dewpoint Dewpoint Depression Visibility Wind Speed Wind Dir Waves Ship Positions

Drifting buoy 43533

Last reported at 2017-Jul-24 04:00 UTC. Time now 2017-Jul-24 04:50 UTC.
Position N 18°27' W 119°55'.

Length 24 m.

Type: Fishing. MMSI: 412466549.

Water temperature 26.4 ° C

Date/timePositionNaut miles runAvg speedWind from/ knotsBaromVisibWave heightAir tempDewpointWater temp
2017-Jul-24 04:00N 18°27' W 119°55'1 0.6 26.4
2017-Jul-24 02:00N 18°27' W 119°53'1 0.6 26.4
2017-Jul-24 01:00N 18°27' W 119°54'0 0.0 26.4
2017-Jul-23 23:00N 18°27' W 119°54'2 0.4 26.5
2017-Jul-23 18:00N 18°25' W 119°53'1 1.3 26.3
2017-Jul-23 17:00N 18°26' W 119°52'0 0.0 26.2
2017-Jul-23 16:00N 18°26' W 119°52'1 0.6 26.2
2017-Jul-23 15:00N 18°26' W 119°52'0 0.0 26.2
2017-Jul-23 14:00N 18°26' W 119°52'0 0.0 26.2
2017-Jul-23 13:00N 18°26' W 119°52'3 2.9 26.2
2017-Jul-23 12:00N 18°28' W 119°50'2 2.1 26.2
2017-Jul-23 11:00N 18°26' W 119°51'2 2.1 26.2
2017-Jul-23 10:00N 18°28' W 119°50'0 0.0 26.2
2017-Jul-23 06:00N 18°28' W 119°50'1 0.6 26.3
2017-Jul-23 05:00N 18°28' W 119°49'1 0.8 26.3
2017-Jul-23 04:00N 18°29' W 119°50'1 0.8 26.3
2017-Jul-23 03:00N 18°29' W 119°49'1 0.6 26.4
2017-Jul-23 02:00N 18°29' W 119°50'1 0.8 26.4
2017-Jul-23 01:00N 18°30' W 119°49'1 0.8 26.4
2017-Jul-23 00:00N 18°29' W 119°50'0 0.0 26.4
2017-Jul-22 23:00N 18°29' W 119°50'1 0.3 26.4
2017-Jul-22 21:00N 18°29' W 119°50'0 0.0 26.4
2017-Jul-22 18:00N 18°29' W 119°50'1 1.1 26.3
2017-Jul-22 17:00N 18°29' W 119°49'0 0.0 26.2
2017-Jul-22 16:00N 18°29' W 119°49'0 0.0 26.2
2017-Jul-22 15:00N 18°29' W 119°49'0 0.0 26.2
2017-Jul-22 14:00N 18°29' W 119°49'1 0.8 26.2
2017-Jul-22 13:00N 18°29' W 119°49'0 0.0 26.2
2017-Jul-22 12:00N 18°29' W 119°49'0 0.0 26.2
2017-Jul-22 11:00N 18°29' W 119°49'1 1.3 26.2
2017-Jul-22 10:00N 18°29' W 119°47'1 0.2 26.2
2017-Jul-22 06:00N 18°30' W 119°47'1 0.6 26.2
2017-Jul-22 05:00N 18°30' W 119°46'1 1.2 26.2
2017-Jul-22 04:00N 18°31' W 119°46'1 0.8 26.2
2017-Jul-22 03:00N 18°31' W 119°46'1 0.3 26.2
2017-Jul-22 01:00N 18°31' W 119°46'0 0.0 26.3
2017-Jul-22 00:00N 18°31' W 119°46'0 0.0 26.3
2017-Jul-21 23:00N 18°31' W 119°46'1 0.6 26.3
2017-Jul-21 22:00N 18°31' W 119°45'1 0.6 26.3
2017-Jul-21 21:00N 18°31' W 119°46'1 0.2 26.3
2017-Jul-21 18:00N 18°31' W 119°45'1 0.6 26.2
2017-Jul-21 17:00N 18°31' W 119°44'1 0.6 26.2
2017-Jul-21 16:00N 18°31' W 119°44'0 0.0 26.2
2017-Jul-21 15:00N 18°31' W 119°44'1 0.6 26.2
2017-Jul-21 14:00N 18°32' W 119°44'1 0.8 26.2
2017-Jul-21 13:00N 18°31' W 119°43'1 1.2 26.2
2017-Jul-21 12:00N 18°32' W 119°43'2 0.8 26.2
2017-Jul-21 10:00N 18°31' W 119°42'1 0.1 26.2
2017-Jul-21 06:00N 18°31' W 119°41'0 0.0 26.3
2017-Jul-21 05:00N 18°31' W 119°41'1 0.6 26.4
2017-Jul-21 03:00N 18°31' W 119°40'1 0.8 26.4
2017-Jul-21 02:00N 18°32' W 119°40'1 1.1 26.4
2017-Jul-21 01:00N 18°32' W 119°38'1 0.8 26.4
2017-Jul-21 00:00N 18°32' W 119°38'0 0.0 26.4
2017-Jul-20 23:00N 18°32' W 119°38'2 1.7 26.4
2017-Jul-20 22:00N 18°34' W 119°37'2 1.7 26.4
2017-Jul-20 21:00N 18°32' W 119°38'2 0.7 26.4
2017-Jul-20 18:00N 18°34' W 119°36'1 0.6 26.4
2017-Jul-20 17:00N 18°34' W 119°36'0 0.0 26.4
2017-Jul-20 16:00N 18°34' W 119°36'1 1.3 26.3
2017-Jul-20 15:00N 18°35' W 119°35'1 0.6 26.3
2017-Jul-20 14:00N 18°35' W 119°35'1 0.6 26.4
2017-Jul-20 13:00N 18°36' W 119°35'1 0.8 26.3
2017-Jul-20 12:00N 18°37' W 119°34'0 0.0 26.3
2017-Jul-20 11:00N 18°37' W 119°34'3 3.0 26.3
2017-Jul-20 10:00N 18°40' W 119°34'0 0.0 26.3
2017-Jul-20 06:00N 18°40' W 119°34'1 0.6 26.4
2017-Jul-20 05:00N 18°40' W 119°34'1 0.6 26.4
2017-Jul-20 04:00N 18°41' W 119°34'1 0.7 26.4
2017-Jul-20 02:00N 18°42' W 119°35'1 0.8 26.5
2017-Jul-20 01:00N 18°43' W 119°35'0 0.0 26.5
2017-Jul-20 00:00N 18°43' W 119°35'1 0.6 26.6
2017-Jul-19 23:00N 18°43' W 119°35'0 0.0 26.6
2017-Jul-19 22:00N 18°43' W 119°35'0 0.0 26.6
2017-Jul-19 21:00N 18°43' W 119°35'1 0.2 26.6
2017-Jul-19 18:00N 18°43' W 119°36'1 0.6 26.4
2017-Jul-19 17:00N 18°44' W 119°36'0 0.0 26.4
2017-Jul-19 16:00N 18°44' W 119°36'1 0.8 26.3
2017-Jul-19 15:00N 18°44' W 119°37'2 1.7 26.2
2017-Jul-19 14:00N 18°46' W 119°35'1 0.6 26.2
2017-Jul-19 13:00N 18°46' W 119°36'0 0.0 26.2
2017-Jul-19 12:00N 18°46' W 119°36'1 0.8 26.3
2017-Jul-19 11:00N 18°46' W 119°35'1 0.8 26.3
2017-Jul-19 10:00N 18°46' W 119°36'2 0.3 26.3
2017-Jul-19 05:00N 18°47' W 119°35'0 0.0 26.4
2017-Jul-19 04:00N 18°47' W 119°35'1 0.8 26.4
2017-Jul-19 03:00N 18°47' W 119°35'1 0.8 26.4
2017-Jul-19 02:00N 18°48' W 119°35'0 0.0 26.4
2017-Jul-19 01:00N 18°48' W 119°35'1 0.6 26.4
2017-Jul-19 00:00N 18°49' W 119°35'1 1.2 26.6
2017-Jul-18 23:00N 18°50' W 119°35'1 0.6 26.5
2017-Jul-18 22:00N 18°50' W 119°35'0 0.0 26.6
2017-Jul-18 21:00N 18°50' W 119°35'2 0.8 26.5
2017-Jul-18 18:00N 18°52' W 119°35'1 0.6 26.4
2017-Jul-18 17:00N 18°53' W 119°35'2 2.1 26.3
2017-Jul-18 16:00N 18°55' W 119°36'0 0.0 26.2
2017-Jul-18 15:00N 18°55' W 119°36'1 1.2 26.2
2017-Jul-18 14:00N 18°56' W 119°36'1 1.3 26.1
2017-Jul-18 13:00N 18°56' W 119°37'0 0.0 26.1
2017-Jul-18 12:00N 18°56' W 119°37'2 2.3 26.1
2017-Jul-18 11:00N 18°57' W 119°40'2 2.3 26.2
2017-Jul-18 10:00N 18°56' W 119°37'2 0.6 26.2
2017-Jul-18 06:00N 18°57' W 119°40'1 0.6 26.4
2017-Jul-18 05:00N 18°58' W 119°40'4 0.4 26.4
2017-Jul-17 18:00N 19°01' W 119°42'0 0.0 26.2
2017-Jul-17 17:00N 19°01' W 119°42'1 1.3 26.1
2017-Jul-17 16:00N 19°02' W 119°41'0 0.0 26.0
2017-Jul-17 15:00N 19°02' W 119°41'1 0.6 26.0
2017-Jul-17 14:00N 19°02' W 119°41'1 0.6 25.9
2017-Jul-17 13:00N 19°02' W 119°41'1 1.3 26.0
2017-Jul-17 12:00N 19°04' W 119°41'5 5.4 26.0
2017-Jul-17 11:00N 19°08' W 119°44'0 0.0 26.0
2017-Jul-17 10:00N 19°08' W 119°44'0 0.0 26.0
2017-Jul-17 06:00N 19°08' W 119°44'1 0.4 26.1
2017-Jul-17 04:00N 19°08' W 119°45'1 1.3 26.1
2017-Jul-17 03:00N 19°09' W 119°46'0 0.0 26.1
2017-Jul-17 02:00N 19°09' W 119°46'1 0.8 26.2
2017-Jul-17 01:00N 19°10' W 119°47'2 1.7 26.3
2017-Jul-17 00:00N 19°10' W 119°49'0 0.0 26.4
2017-Jul-16 23:00N 19°10' W 119°49'3 0.5 26.5
2017-Jul-16 17:00N 19°11' W 119°51'0 0.0 25.9
2017-Jul-16 16:00N 19°11' W 119°51'0 0.0 25.9
2017-Jul-16 15:00N 19°11' W 119°51'0 0.0 25.9
2017-Jul-16 14:00N 19°11' W 119°51'2 1.9 25.9
2017-Jul-16 13:00N 19°13' W 119°52'1 0.8 25.9
2017-Jul-16 12:00N 19°13' W 119°52'4 4.4 25.9
2017-Jul-16 11:00N 19°14' W 119°56'0 0.0 25.9
2017-Jul-16 05:00N 19°14' W 119°56'1 0.6 26.1
2017-Jul-16 04:00N 19°14' W 119°56'1 1.2 26.1
2017-Jul-16 03:00N 19°15' W 119°56'1 0.6 26.1
2017-Jul-16 02:00N 19°14' W 119°56'1 1.3 26.2
2017-Jul-16 01:00N 19°15' W 119°58'0 0.0 26.2
2017-Jul-16 00:00N 19°15' W 119°58'0 0.0 26.2
2017-Jul-15 23:00N 19°15' W 119°58'3 0.5 26.2
2017-Jul-15 18:00N 19°16' W 120°00'2 0.6 26.0
2017-Jul-15 15:00N 19°16' W 120°02'1 0.6 25.9
2017-Jul-15 14:00N 19°17' W 120°02'0 0.0 25.9
2017-Jul-15 13:00N 19°17' W 120°02'1 0.6 25.9
2017-Jul-15 12:00N 19°17' W 120°02'3 3.4 25.9
2017-Jul-15 11:00N 19°19' W 120°05'0 0.0 25.9
2017-Jul-15 10:00N 19°19' W 120°05'0 0.0 25.9
2017-Jul-15 09:00N 19°19' W 120°05'2 0.3 26.0
2017-Jul-15 02:00N 19°19' W 120°08'0 0.0 26.1
2017-Jul-15 01:00N 19°19' W 120°08'1 0.6 26.1
2017-Jul-14 23:00N 19°19' W 120°09'2 0.5 26.1
2017-Jul-14 18:00N 19°19' W 120°11'2 0.8 25.9
2017-Jul-14 16:00N 19°19' W 120°13'0 0.0 25.9
2017-Jul-14 15:00N 19°19' W 120°13'1 1.1 25.9
2017-Jul-14 14:00N 19°19' W 120°14'0 0.0 25.8
2017-Jul-14 13:00N 19°19' W 120°14'1 1.3 25.9
2017-Jul-14 12:00N 19°19' W 120°16'1 0.8 25.9
2017-Jul-14 11:00N 19°19' W 120°16'2 1.8 25.8
2017-Jul-14 10:00N 19°18' W 120°18'2 1.8 25.8
2017-Jul-14 09:00N 19°19' W 120°16'2 0.6 25.7
2017-Jul-14 05:00N 19°18' W 120°19'0 0.0 25.7
2017-Jul-14 04:00N 19°18' W 120°19'   25.7
Track history (hours):
 
Tides and Currents Weather Stations Pressure Air Temp Water Temp Dewpoint Dewpoint Depression Visibility Wind Speed Wind Dir Waves Ship Positions

Drifting buoy 43533

Last reported at 2017-Jul-24 04:00 UTC. Time now 2017-Jul-24 04:50 UTC.
Position N 18°27' W 119°55'.

Length 24 m.

Type: Fishing. MMSI: 412466549.

Water temperature 26.4 ° C

Date/timePositionNaut miles runAvg speedWind from/ knotsBaromVisibWave heightAir tempDewpointWater temp
2017-Jul-24 04:00N 18°27' W 119°55'1 0.6 26.4
2017-Jul-24 02:00N 18°27' W 119°53'1 0.6 26.4
2017-Jul-24 01:00N 18°27' W 119°54'0 0.0 26.4
2017-Jul-23 23:00N 18°27' W 119°54'2 0.4 26.5
2017-Jul-23 18:00N 18°25' W 119°53'1 1.3 26.3
2017-Jul-23 17:00N 18°26' W 119°52'0 0.0 26.2
2017-Jul-23 16:00N 18°26' W 119°52'1 0.6 26.2
2017-Jul-23 15:00N 18°26' W 119°52'0 0.0 26.2
2017-Jul-23 14:00N 18°26' W 119°52'0 0.0 26.2
2017-Jul-23 13:00N 18°26' W 119°52'3 2.9 26.2
2017-Jul-23 12:00N 18°28' W 119°50'2 2.1 26.2
2017-Jul-23 11:00N 18°26' W 119°51'2 2.1 26.2
2017-Jul-23 10:00N 18°28' W 119°50'0 0.0 26.2
2017-Jul-23 06:00N 18°28' W 119°50'1 0.6 26.3
2017-Jul-23 05:00N 18°28' W 119°49'1 0.8 26.3
2017-Jul-23 04:00N 18°29' W 119°50'1 0.8 26.3
2017-Jul-23 03:00N 18°29' W 119°49'1 0.6 26.4
2017-Jul-23 02:00N 18°29' W 119°50'1 0.8 26.4
2017-Jul-23 01:00N 18°30' W 119°49'1 0.8 26.4
2017-Jul-23 00:00N 18°29' W 119°50'0 0.0 26.4
2017-Jul-22 23:00N 18°29' W 119°50'1 0.3 26.4
2017-Jul-22 21:00N 18°29' W 119°50'0 0.0 26.4
2017-Jul-22 18:00N 18°29' W 119°50'1 1.1 26.3
2017-Jul-22 17:00N 18°29' W 119°49'0 0.0 26.2
2017-Jul-22 16:00N 18°29' W 119°49'0 0.0 26.2
2017-Jul-22 15:00N 18°29' W 119°49'0 0.0 26.2
2017-Jul-22 14:00N 18°29' W 119°49'1 0.8 26.2
2017-Jul-22 13:00N 18°29' W 119°49'0 0.0 26.2
2017-Jul-22 12:00N 18°29' W 119°49'0 0.0 26.2
2017-Jul-22 11:00N 18°29' W 119°49'1 1.3 26.2
2017-Jul-22 10:00N 18°29' W 119°47'1 0.2 26.2
2017-Jul-22 06:00N 18°30' W 119°47'1 0.6 26.2
2017-Jul-22 05:00N 18°30' W 119°46'1 1.2 26.2
2017-Jul-22 04:00N 18°31' W 119°46'1 0.8 26.2
2017-Jul-22 03:00N 18°31' W 119°46'1 0.3 26.2
2017-Jul-22 01:00N 18°31' W 119°46'0 0.0 26.3
2017-Jul-22 00:00N 18°31' W 119°46'0 0.0 26.3
2017-Jul-21 23:00N 18°31' W 119°46'1 0.6 26.3
2017-Jul-21 22:00N 18°31' W 119°45'1 0.6 26.3
2017-Jul-21 21:00N 18°31' W 119°46'1 0.2 26.3
2017-Jul-21 18:00N 18°31' W 119°45'1 0.6 26.2
2017-Jul-21 17:00N 18°31' W 119°44'1 0.6 26.2
2017-Jul-21 16:00N 18°31' W 119°44'0 0.0 26.2
2017-Jul-21 15:00N 18°31' W 119°44'1 0.6 26.2
2017-Jul-21 14:00N 18°32' W 119°44'1 0.8 26.2
2017-Jul-21 13:00N 18°31' W 119°43'1 1.2 26.2
2017-Jul-21 12:00N 18°32' W 119°43'2 0.8 26.2
2017-Jul-21 10:00N 18°31' W 119°42'1 0.1 26.2
2017-Jul-21 06:00N 18°31' W 119°41'0 0.0 26.3
2017-Jul-21 05:00N 18°31' W 119°41'1 0.6 26.4
2017-Jul-21 03:00N 18°31' W 119°40'1 0.8 26.4
2017-Jul-21 02:00N 18°32' W 119°40'1 1.1 26.4
2017-Jul-21 01:00N 18°32' W 119°38'1 0.8 26.4
2017-Jul-21 00:00N 18°32' W 119°38'0 0.0 26.4
2017-Jul-20 23:00N 18°32' W 119°38'2 1.7 26.4
2017-Jul-20 22:00N 18°34' W 119°37'2 1.7 26.4
2017-Jul-20 21:00N 18°32' W 119°38'2 0.7 26.4
2017-Jul-20 18:00N 18°34' W 119°36'1 0.6 26.4
2017-Jul-20 17:00N 18°34' W 119°36'0 0.0 26.4
2017-Jul-20 16:00N 18°34' W 119°36'1 1.3 26.3
2017-Jul-20 15:00N 18°35' W 119°35'1 0.6 26.3
2017-Jul-20 14:00N 18°35' W 119°35'1 0.6 26.4
2017-Jul-20 13:00N 18°36' W 119°35'1 0.8 26.3
2017-Jul-20 12:00N 18°37' W 119°34'0 0.0 26.3
2017-Jul-20 11:00N 18°37' W 119°34'3 3.0 26.3
2017-Jul-20 10:00N 18°40' W 119°34'0 0.0 26.3
2017-Jul-20 06:00N 18°40' W 119°34'1 0.6 26.4
2017-Jul-20 05:00N 18°40' W 119°34'1 0.6 26.4
2017-Jul-20 04:00N 18°41' W 119°34'1 0.7 26.4
2017-Jul-20 02:00N 18°42' W 119°35'1 0.8 26.5
2017-Jul-20 01:00N 18°43' W 119°35'0 0.0 26.5
2017-Jul-20 00:00N 18°43' W 119°35'1 0.6 26.6
2017-Jul-19 23:00N 18°43' W 119°35'0 0.0 26.6
2017-Jul-19 22:00N 18°43' W 119°35'0 0.0 26.6
2017-Jul-19 21:00N 18°43' W 119°35'1 0.2 26.6
2017-Jul-19 18:00N 18°43' W 119°36'1 0.6 26.4
2017-Jul-19 17:00N 18°44' W 119°36'0 0.0 26.4
2017-Jul-19 16:00N 18°44' W 119°36'1 0.8 26.3
2017-Jul-19 15:00N 18°44' W 119°37'2 1.7 26.2
2017-Jul-19 14:00N 18°46' W 119°35'1 0.6 26.2
2017-Jul-19 13:00N 18°46' W 119°36'0 0.0 26.2
2017-Jul-19 12:00N 18°46' W 119°36'1 0.8 26.3
2017-Jul-19 11:00N 18°46' W 119°35'1 0.8 26.3
2017-Jul-19 10:00N 18°46' W 119°36'2 0.3 26.3
2017-Jul-19 05:00N 18°47' W 119°35'0 0.0 26.4
2017-Jul-19 04:00N 18°47' W 119°35'1 0.8 26.4
2017-Jul-19 03:00N 18°47' W 119°35'1 0.8 26.4
2017-Jul-19 02:00N 18°48' W 119°35'0 0.0 26.4
2017-Jul-19 01:00N 18°48' W 119°35'1 0.6 26.4
2017-Jul-19 00:00N 18°49' W 119°35'1 1.2 26.6
2017-Jul-18 23:00N 18°50' W 119°35'1 0.6 26.5
2017-Jul-18 22:00N 18°50' W 119°35'0 0.0 26.6
2017-Jul-18 21:00N 18°50' W 119°35'2 0.8 26.5
2017-Jul-18 18:00N 18°52' W 119°35'1 0.6 26.4
2017-Jul-18 17:00N 18°53' W 119°35'2 2.1 26.3
2017-Jul-18 16:00N 18°55' W 119°36'0 0.0 26.2
2017-Jul-18 15:00N 18°55' W 119°36'1 1.2 26.2
2017-Jul-18 14:00N 18°56' W 119°36'1 1.3 26.1
2017-Jul-18 13:00N 18°56' W 119°37'0 0.0 26.1
2017-Jul-18 12:00N 18°56' W 119°37'2 2.3 26.1
2017-Jul-18 11:00N 18°57' W 119°40'2 2.3 26.2
2017-Jul-18 10:00N 18°56' W 119°37'2 0.6 26.2
2017-Jul-18 06:00N 18°57' W 119°40'1 0.6 26.4
2017-Jul-18 05:00N 18°58' W 119°40'4 0.4 26.4
2017-Jul-17 18:00N 19°01' W 119°42'0 0.0 26.2
2017-Jul-17 17:00N 19°01' W 119°42'1 1.3 26.1
2017-Jul-17 16:00N 19°02' W 119°41'0 0.0 26.0
2017-Jul-17 15:00N 19°02' W 119°41'1 0.6 26.0
2017-Jul-17 14:00N 19°02' W 119°41'1 0.6 25.9
2017-Jul-17 13:00N 19°02' W 119°41'1 1.3 26.0
2017-Jul-17 12:00N 19°04' W 119°41'5 5.4 26.0
2017-Jul-17 11:00N 19°08' W 119°44'0 0.0 26.0
2017-Jul-17 10:00N 19°08' W 119°44'0 0.0 26.0
2017-Jul-17 06:00N 19°08' W 119°44'1 0.4 26.1
2017-Jul-17 04:00N 19°08' W 119°45'1 1.3 26.1
2017-Jul-17 03:00N 19°09' W 119°46'0 0.0 26.1
2017-Jul-17 02:00N 19°09' W 119°46'1 0.8 26.2
2017-Jul-17 01:00N 19°10' W 119°47'2 1.7 26.3
2017-Jul-17 00:00N 19°10' W 119°49'0 0.0 26.4
2017-Jul-16 23:00N 19°10' W 119°49'3 0.5 26.5
2017-Jul-16 17:00N 19°11' W 119°51'0 0.0 25.9
2017-Jul-16 16:00N 19°11' W 119°51'0 0.0 25.9
2017-Jul-16 15:00N 19°11' W 119°51'0 0.0 25.9
2017-Jul-16 14:00N 19°11' W 119°51'2 1.9 25.9
2017-Jul-16 13:00N 19°13' W 119°52'1 0.8 25.9
2017-Jul-16 12:00N 19°13' W 119°52'4 4.4 25.9
2017-Jul-16 11:00N 19°14' W 119°56'0 0.0 25.9
2017-Jul-16 05:00N 19°14' W 119°56'1 0.6 26.1
2017-Jul-16 04:00N 19°14' W 119°56'1 1.2 26.1
2017-Jul-16 03:00N 19°15' W 119°56'1 0.6 26.1
2017-Jul-16 02:00N 19°14' W 119°56'1 1.3 26.2
2017-Jul-16 01:00N 19°15' W 119°58'0 0.0 26.2
2017-Jul-16 00:00N 19°15' W 119°58'0 0.0 26.2
2017-Jul-15 23:00N 19°15' W 119°58'3 0.5 26.2
2017-Jul-15 18:00N 19°16' W 120°00'2 0.6 26.0
2017-Jul-15 15:00N 19°16' W 120°02'1 0.6 25.9
2017-Jul-15 14:00N 19°17' W 120°02'0 0.0 25.9
2017-Jul-15 13:00N 19°17' W 120°02'1 0.6 25.9
2017-Jul-15 12:00N 19°17' W 120°02'3 3.4 25.9
2017-Jul-15 11:00N 19°19' W 120°05'0 0.0 25.9
2017-Jul-15 10:00N 19°19' W 120°05'0 0.0 25.9
2017-Jul-15 09:00N 19°19' W 120°05'2 0.3 26.0
2017-Jul-15 02:00N 19°19' W 120°08'0 0.0 26.1
2017-Jul-15 01:00N 19°19' W 120°08'1 0.6 26.1
2017-Jul-14 23:00N 19°19' W 120°09'2 0.5 26.1
2017-Jul-14 18:00N 19°19' W 120°11'2 0.8 25.9
2017-Jul-14 16:00N 19°19' W 120°13'0 0.0 25.9
2017-Jul-14 15:00N 19°19' W 120°13'1 1.1 25.9
2017-Jul-14 14:00N 19°19' W 120°14'0 0.0 25.8
2017-Jul-14 13:00N 19°19' W 120°14'1 1.3 25.9
2017-Jul-14 12:00N 19°19' W 120°16'1 0.8 25.9
2017-Jul-14 11:00N 19°19' W 120°16'2 1.8 25.8
2017-Jul-14 10:00N 19°18' W 120°18'2 1.8 25.8
2017-Jul-14 09:00N 19°19' W 120°16'2 0.6 25.7
2017-Jul-14 05:00N 19°18' W 120°19'0 0.0 25.7
2017-Jul-14 04:00N 19°18' W 120°19'   25.7

Dump ship's entire track history